Time;durP1;ratioP1;P1;durP2;ratioP2;P2;SDS_P1;SDS_P2;PMS_P1;PMS_P2;Temp;Humidity;BMP_temperature;BMP_pressure;BME280_temperature;BME280_humidity;BME280_pressure;Samples;Min_cycle;Max_cycle;Signal;HPM_P1;HPM_P2
2022/01/04 00:00:42;;;;;;;4.88;2.53;;;;;;;9.64;79.19;99002.44;5051364;28;20041;-61
2022/01/04 00:03:10;;;;;;;4.40;3.08;;;;;;;9.67;79.74;98996.19;5054697;28;20059;-60
2022/01/04 00:05:39;;;;;;;3.65;2.55;;;;;;;9.57;79.34;98995.81;5054735;28;20056;-61
2022/01/04 00:08:10;;;;;;;4.30;2.78;;;;;;;9.63;79.12;98986.91;5053365;28;20064;-61
2022/01/04 00:10:38;;;;;;;4.40;2.55;;;;;;;9.53;79.26;98979.00;5037249;28;20058;-61
2022/01/04 00:13:24;;;;;;;4.57;2.42;;;;;;;9.40;79.38;98980.16;5054382;28;20053;-60
2022/01/04 00:15:54;;;;;;;6.65;2.22;;;;;;;9.51;78.85;98973.81;5054459;28;20049;-60
2022/01/04 00:18:21;;;;;;;;;;;;;;;9.32;78.90;98963.25;5054952;28;20413;-61
2022/01/04 00:20:49;;;;;;;3.90;1.98;;;;;;;9.44;79.04;98958.84;5054455;28;19929;-61
2022/01/04 00:23:18;;;;;;;4.07;2.50;;;;;;;9.26;80.16;98950.72;5053623;28;20049;-61
2022/01/04 00:25:46;;;;;;;3.90;1.70;;;;;;;9.27;80.70;98948.75;5054231;28;20079;-61
2022/01/04 00:28:14;;;;;;;3.17;2.20;;;;;;;9.27;80.75;98948.75;5054250;28;20064;-60
2022/01/04 00:30:42;;;;;;;5.10;2.15;;;;;;;9.31;81.16;98949.69;5054329;28;20056;-60
2022/01/04 00:33:13;;;;;;;2.95;1.83;;;;;;;9.22;81.47;98940.59;5054214;28;20060;-60
2022/01/04 00:35:41;;;;;;;6.82;2.50;;;;;;;9.14;81.95;98947.91;5034605;28;20053;-61
2022/01/04 00:38:08;;;;;;;5.55;2.90;;;;;;;9.13;82.84;98937.91;5042752;28;20045;-61
2022/01/04 00:40:36;;;;;;;5.00;2.45;;;;;;;9.12;82.72;98930.75;5054260;28;20060;-61
2022/01/04 00:43:05;;;;;;;5.82;2.60;;;;;;;9.05;81.80;98931.31;5054056;28;20056;-60
2022/01/04 00:45:35;;;;;;;6.18;2.47;;;;;;;9.06;82.44;98927.38;5054119;28;20053;-61
2022/01/04 00:50:50;;;;;;;4.50;2.55;;;;;;;9.15;81.61;98930.06;5054420;28;20070;-61
2022/01/04 00:53:17;;;;;;;3.50;2.33;;;;;;;9.07;81.55;98912.34;5053445;28;20052;-61
2022/01/04 00:55:47;;;;;;;5.03;2.38;;;;;;;8.99;82.11;98909.63;5054099;28;20052;-61
2022/01/04 00:58:14;;;;;;;3.97;2.25;;;;;;;9.02;82.35;98895.88;5053609;28;20500;-61
2022/01/04 01:00:44;;;;;;;5.05;2.58;;;;;;;8.85;81.51;98905.22;5053631;28;20045;-61
2022/01/04 01:03:12;;;;;;;3.67;2.50;;;;;;;8.96;81.47;98893.69;5053447;28;20049;-61
2022/01/04 01:05:39;;;;;;;4.80;2.97;;;;;;;8.98;81.42;98881.06;5053524;28;20482;-61
2022/01/04 01:08:08;;;;;;;5.30;2.88;;;;;;;9.02;81.52;98873.66;5047163;28;20049;-60
2022/01/04 01:10:48;;;;;;;4.40;2.47;;;;;;;8.74;81.75;98862.38;5052888;28;20508;-61
2022/01/04 01:13:15;;;;;;;;;;;;;;;8.80;81.24;98861.00;5053942;28;20049;-61
2022/01/04 01:15:45;;;;;;;2.85;1.83;;;;;;;8.81;81.15;98856.25;5053047;28;19928;-61
2022/01/04 01:18:14;;;;;;;4.50;2.58;;;;;;;8.78;81.13;98851.38;5053443;28;20059;-61
2022/01/04 01:20:42;;;;;;;3.35;2.30;;;;;;;8.93;80.96;98845.19;5053739;28;20423;-61
2022/01/04 01:23:10;;;;;;;3.58;2.60;;;;;;;8.87;80.57;98841.81;5053362;28;20048;-61
2022/01/04 01:25:38;;;;;;;5.07;2.88;;;;;;;9.00;80.65;98841.84;5050613;28;20057;-61
2022/01/04 01:28:05;;;;;;;3.70;3.20;;;;;;;9.03;80.42;98832.81;5052944;28;20053;-60
2022/01/04 01:30:36;;;;;;;4.15;2.60;;;;;;;8.87;80.62;98835.47;5053132;28;20064;-60
2022/01/04 01:33:11;;;;;;;3.83;2.55;;;;;;;8.95;80.27;98831.78;5052716;28;20080;-60
2022/01/04 01:35:39;;;;;;;4.03;2.78;;;;;;;8.91;80.06;98828.88;5053530;28;20049;-61
2022/01/04 01:38:08;;;;;;;5.53;3.15;;;;;;;8.82;81.08;98822.63;5053206;28;20060;-61
2022/01/04 01:40:38;;;;;;;4.33;3.00;;;;;;;8.91;80.82;98828.06;5043030;28;20049;-61
2022/01/04 01:43:05;;;;;;;3.97;2.65;;;;;;;8.88;81.97;98821.25;5032788;28;20053;-61
2022/01/04 01:45:33;;;;;;;4.55;2.65;;;;;;;8.84;82.22;98809.19;5033460;28;20417;-61
2022/01/04 01:48:01;;;;;;;8.57;3.00;;;;;;;8.76;82.61;98820.38;5033251;28;20049;-61
2022/01/04 01:50:28;;;;;;;4.05;2.90;;;;;;;8.85;81.85;98810.00;5032748;28;20049;-61
2022/01/04 01:52:56;;;;;;;4.47;2.90;;;;;;;8.82;82.82;98816.22;5032491;28;20133;-61
2022/01/04 01:55:25;;;;;;;4.75;2.83;;;;;;;8.79;82.72;98800.28;5032473;28;20061;-61
2022/01/04 01:57:55;;;;;;;7.03;3.60;;;;;;;8.80;82.59;98805.50;5032114;28;20049;-61
2022/01/04 02:00:25;;;;;;;4.88;3.28;;;;;;;8.79;82.72;98797.50;5036589;28;20491;-61
2022/01/04 02:02:53;;;;;;;4.25;3.70;;;;;;;8.77;82.41;98794.25;5052467;28;20064;-61
2022/01/04 02:05:21;;;;;;;4.45;3.75;;;;;;;8.84;81.84;98792.53;5052247;28;20052;-60
2022/01/04 02:07:49;;;;;;;5.70;3.83;;;;;;;8.83;81.98;98788.13;5051877;28;20075;-61
2022/01/04 02:10:16;;;;;;;4.25;3.85;;;;;;;8.63;82.79;98781.50;5052149;28;20053;-61
2022/01/04 02:12:47;;;;;;;5.18;4.30;;;;;;;8.77;82.83;98774.81;5052414;28;20056;-61
2022/01/04 02:15:19;;;;;;;4.70;3.67;;;;;;;8.65;84.06;98767.25;5050297;28;20421;-61
2022/01/04 02:17:47;;;;;;;15.48;4.57;;;;;;;8.75;83.52;98769.59;5052399;28;20464;-61
2022/01/04 02:20:17;;;;;;;5.50;4.63;;;;;;;8.79;82.22;98767.75;5050009;28;20502;-61
2022/01/04 02:22:44;;;;;;;;;;;;;;;8.86;81.52;98767.19;5052645;28;20057;-61
2022/01/04 02:25:12;;;;;;;5.63;3.90;;;;;;;8.85;81.64;98771.94;5051550;28;19921;-61
2022/01/04 02:27:41;;;;;;;4.55;3.70;;;;;;;8.91;82.32;98775.31;5051741;28;20367;-61
2022/01/04 02:30:11;;;;;;;3.92;3.15;;;;;;;8.97;81.98;98773.13;5051969;28;20048;-61
2022/01/04 02:32:38;;;;;;;4.47;3.35;;;;;;;9.06;82.37;98771.84;5041027;28;20065;-60
2022/01/04 02:35:13;;;;;;;4.22;3.58;;;;;;;9.11;82.33;98766.06;5032143;28;20057;-61
2022/01/04 02:37:42;;;;;;;5.38;4.05;;;;;;;9.13;82.34;98766.53;5032605;28;20049;-61
2022/01/04 02:40:12;;;;;;;4.00;3.20;;;;;;;9.08;82.32;98757.63;5032223;28;20049;-61
2022/01/04 02:42:42;;;;;;;3.95;3.33;;;;;;;9.22;81.80;98760.03;5040011;28;20045;-61
2022/01/04 02:45:10;;;;;;;4.43;3.67;;;;;;;9.22;81.80;98749.75;5051771;28;20052;-61
2022/01/04 02:47:44;;;;;;;5.15;4.43;;;;;;;9.29;81.36;98749.97;5038939;28;20145;-61
2022/01/04 02:50:12;;;;;;;5.13;3.58;;;;;;;9.31;81.07;98744.88;5032177;28;20057;-60
2022/01/04 02:52:41;;;;;;;4.03;3.28;;;;;;;9.34;80.34;98743.38;5032285;28;20057;-61
2022/01/04 02:55:12;;;;;;;4.25;3.00;;;;;;;9.31;80.10;98739.31;5031570;28;20050;-61
2022/01/04 02:57:39;;;;;;;4.75;3.13;;;;;;;8.99;80.57;98737.47;5031967;28;20053;-61
2022/01/04 03:00:13;;;;;;;3.95;2.95;;;;;;;9.05;80.95;98733.31;5032298;28;20053;-61
2022/01/04 03:02:42;;;;;;;3.88;2.97;;;;;;;9.18;80.38;98728.59;5049258;28;20053;-61
2022/01/04 03:05:10;;;;;;;4.15;3.63;;;;;;;9.21;79.89;98717.56;5051822;28;20052;-60
2022/01/04 03:07:38;;;;;;;4.28;2.97;;;;;;;9.13;79.89;98712.94;5051520;28;20685;-61
2022/01/04 03:10:08;;;;;;;4.15;3.22;;;;;;;8.97;80.11;98717.59;5051531;28;20056;-61
2022/01/04 03:12:35;;;;;;;;;;;;;;;8.97;79.39;98717.59;5052327;28;20056;-61
2022/01/04 03:15:04;;;;;;;4.25;2.88;;;;;;;8.98;80.12;98719.19;5051703;28;19927;-61
2022/01/04 03:17:31;;;;;;;3.95;2.60;;;;;;;8.94;80.40;98708.81;5049230;28;20060;-61
2022/01/04 03:19:58;;;;;;;3.53;2.60;;;;;;;8.91;80.35;98709.47;5051402;28;20057;-61
2022/01/04 03:22:25;;;;;;;3.88;2.60;;;;;;;8.84;81.06;98722.31;5051510;28;20353;-60
2022/01/04 03:24:53;;;;;;;4.47;3.30;;;;;;;8.84;80.94;98709.25;5051204;28;20052;-60
2022/01/04 03:27:22;;;;;;;3.85;3.40;;;;;;;8.78;81.00;98705.09;5051208;28;20064;-60
2022/01/04 03:29:49;;;;;;;3.90;3.13;;;;;;;8.80;80.54;98693.59;5051462;28;20049;-60
2022/01/04 03:32:22;;;;;;;4.68;3.45;;;;;;;8.61;81.06;98695.00;5049270;28;20471;-60
2022/01/04 03:34:51;;;;;;;3.95;3.13;;;;;;;8.75;80.45;98672.44;5051258;28;20045;-60
2022/01/04 03:37:18;;;;;;;3.95;3.03;;;;;;;8.72;80.46;98679.50;5055014;28;20053;-58
2022/01/04 03:39:45;;;;;;;3.40;2.50;;;;;;;8.79;80.07;98675.34;5055301;28;20059;-60
2022/01/04 03:42:15;;;;;;;5.40;3.25;;;;;;;8.80;80.35;98663.06;5054821;28;20048;-60
2022/01/04 03:44:44;;;;;;;3.63;2.80;;;;;;;8.75;80.23;98653.03;5055208;28;20072;-60
2022/01/04 03:47:12;;;;;;;5.95;2.80;;;;;;;8.76;80.25;98653.81;5035347;28;20060;-60
2022/01/04 03:49:39;;;;;;;4.18;2.80;;;;;;;8.73;80.26;98644.22;5035203;28;20060;-59
2022/01/04 03:52:07;;;;;;;3.00;2.70;;;;;;;8.73;79.73;98633.97;5035112;28;20057;-60
2022/01/04 03:54:35;;;;;;;2.85;2.53;;;;;;;8.73;79.68;98630.34;5034508;28;20061;-60
2022/01/04 03:57:02;;;;;;;3.13;2.53;;;;;;;8.71;80.16;98627.09;5034993;28;20056;-60
2022/01/04 03:59:29;;;;;;;4.03;2.70;;;;;;;8.73;80.08;98616.47;5034843;28;20517;-60
2022/01/04 04:01:58;;;;;;;3.08;2.63;;;;;;;8.76;80.20;98607.47;5052491;28;20405;-59
2022/01/04 04:04:26;;;;;;;3.50;2.80;;;;;;;8.81;79.76;98610.00;5055003;28;20063;-60
2022/01/04 04:06:53;;;;;;;3.55;3.10;;;;;;;8.80;79.51;98604.78;5054594;28;20060;-60
2022/01/04 04:09:21;;;;;;;6.82;5.78;;;;;;;8.64;79.98;98599.94;5054638;28;20059;-60
2022/01/04 04:11:48;;;;;;;7.10;5.47;;;;;;;8.70;80.05;98598.56;5054605;28;20045;-60
2022/01/04 04:14:16;;;;;;;6.53;4.10;;;;;;;8.87;79.36;98585.59;5054488;28;20056;-60
2022/01/04 04:16:43;;;;;;;3.90;3.38;;;;;;;8.91;78.78;98570.66;5035405;28;20058;-60
2022/01/04 04:19:12;;;;;;;3.50;2.80;;;;;;;8.98;78.58;98569.25;5035301;28;20471;-60
2022/01/04 04:21:41;;;;;;;5.45;2.80;;;;;;;9.01;79.04;98569.38;5035044;28;20429;-60
2022/01/04 04:24:08;;;;;;;5.20;3.00;;;;;;;9.01;78.36;98568.53;5035151;28;20053;-60
2022/01/04 04:26:35;;;;;;;5.53;3.22;;;;;;;8.96;78.20;98560.47;5054165;28;20064;-60
2022/01/04 04:29:02;;;;;;;4.43;3.33;;;;;;;8.99;78.00;98551.41;5054648;28;20420;-60
2022/01/04 04:31:30;;;;;;;3.28;2.90;;;;;;;8.83;78.65;98554.13;5054162;28;20049;-60
2022/01/04 04:33:57;;;;;;;3.55;2.92;;;;;;;8.80;78.26;98547.31;5054162;28;20053;-60
2022/01/04 04:36:27;;;;;;;3.40;2.83;;;;;;;8.91;78.60;98542.09;5054123;28;20417;-60
2022/01/04 04:38:54;;;;;;;4.18;3.22;;;;;;;8.94;78.43;98528.31;5052441;28;20057;-60
2022/01/04 04:41:22;;;;;;;4.05;3.08;;;;;;;8.93;78.24;98532.22;5033774;28;20050;-58
2022/01/04 04:43:54;;;;;;;4.15;3.50;;;;;;;8.93;78.28;98532.22;5051747;28;20052;-60
2022/01/04 04:46:21;;;;;;;3.88;3.13;;;;;;;8.97;78.17;98517.66;5053221;28;20053;-60
2022/01/04 04:48:49;;;;;;;4.03;3.45;;;;;;;9.05;78.01;98520.28;5054202;28;20057;-60
2022/01/04 04:51:16;;;;;;;4.00;3.20;;;;;;;9.14;77.96;98509.84;5053797;28;20053;-60
2022/01/04 04:53:45;;;;;;;3.47;3.15;;;;;;;9.18;78.08;98507.16;5053737;28;20423;-60
2022/01/04 04:56:12;;;;;;;4.03;3.20;;;;;;;9.14;77.58;98515.38;5053930;28;20049;-60
2022/01/04 04:58:39;;;;;;;5.10;3.80;;;;;;;9.14;77.35;98511.81;5053563;28;20049;-60
2022/01/04 05:01:07;;;;;;;3.72;3.33;;;;;;;9.15;77.07;98507.84;5034429;28;20053;-60
2022/01/04 05:03:34;;;;;;;4.82;4.00;;;;;;;9.25;77.23;98510.13;5033934;28;20053;-60
2022/01/04 05:06:01;;;;;;;3.97;3.53;;;;;;;9.32;77.26;98501.19;5035883;28;20383;-60
2022/01/04 05:08:28;;;;;;;3.60;3.30;;;;;;;9.24;76.23;98499.38;5053914;28;20049;-60
2022/01/04 05:10:58;;;;;;;5.63;3.63;;;;;;;9.15;76.59;98496.75;5053728;28;20418;-58
2022/01/04 05:13:25;;;;;;;5.68;3.42;;;;;;;9.12;76.98;98503.03;5053372;28;20072;-60
2022/01/04 05:15:53;;;;;;;3.97;3.38;;;;;;;9.05;76.68;98497.25;5053081;28;20044;-60
2022/01/04 05:18:20;;;;;;;4.60;3.38;;;;;;;9.19;76.71;98497.66;5053424;28;20053;-60
2022/01/04 05:20:48;;;;;;;3.97;3.45;;;;;;;9.18;76.61;98495.25;5053806;28;20048;-60
2022/01/04 05:23:15;;;;;;;3.95;2.97;;;;;;;9.17;76.40;98508.31;5053381;28;20048;-60
2022/01/04 05:25:42;;;;;;;5.43;3.75;;;;;;;9.16;76.56;98498.38;5053214;28;20053;-59
2022/01/04 05:28:11;;;;;;;4.40;3.40;;;;;;;9.16;76.62;98498.38;5053526;28;20061;-60
2022/01/04 05:30:38;;;;;;;4.07;3.47;;;;;;;9.18;76.61;98489.69;5052118;28;20060;-60
2022/01/04 05:33:06;;;;;;;4.40;3.83;;;;;;;9.16;76.56;98494.81;5053204;28;20053;-60
2022/01/04 05:35:33;;;;;;;4.47;3.55;;;;;;;9.19;76.79;98500.44;5053450;28;20049;-57
2022/01/04 05:38:01;;;;;;;4.80;3.92;;;;;;;9.19;76.94;98494.06;5052988;28;20068;-59
2022/01/04 05:40:28;;;;;;;5.22;4.05;;;;;;;9.21;77.01;98500.88;5053027;28;20088;-59
2022/01/04 05:42:55;;;;;;;4.82;4.25;;;;;;;9.23;77.31;98490.22;5042741;28;20056;-59
2022/01/04 05:45:24;;;;;;;7.75;6.13;;;;;;;9.23;76.57;98493.00;5046063;28;20049;-60
2022/01/04 05:47:51;;;;;;;8.23;5.35;;;;;;;9.20;77.03;98499.28;5052809;28;20049;-59
2022/01/04 05:50:19;;;;;;;6.65;6.00;;;;;;;9.21;76.93;98488.97;5052517;28;20498;-59
2022/01/04 05:52:46;;;;;;;6.45;5.57;;;;;;;9.16;77.40;98487.25;5052044;28;20048;-59
2022/01/04 05:55:13;;;;;;;5.65;5.05;;;;;;;9.22;77.09;98485.84;5052725;28;20497;-60
2022/01/04 05:57:41;;;;;;;4.85;4.30;;;;;;;9.31;76.94;98491.25;5052468;28;20056;-60
2022/01/04 06:00:09;;;;;;;6.05;5.45;;;;;;;9.28;76.57;98487.22;5051406;28;20059;-60
2022/01/04 06:02:38;;;;;;;6.65;5.40;;;;;;;9.30;76.45;98482.13;5052422;28;20490;-58
2022/01/04 06:05:08;;;;;;;7.90;6.03;;;;;;;9.25;76.33;98474.03;5051960;28;20067;-60
2022/01/04 06:07:36;;;;;;;7.75;6.95;;;;;;;9.24;76.91;98464.09;5051675;28;20481;-60
2022/01/04 06:10:06;;;;;;;7.07;6.07;;;;;;;9.21;77.10;98461.19;5052702;28;20049;-60
2022/01/04 06:15:19;;;;;;;9.45;7.18;;;;;;;9.20;76.94;98454.84;5054237;28;20060;-61
2022/01/04 06:17:53;;;;;;;6.65;5.60;;;;;;;9.24;77.01;98447.41;5052137;28;20405;-60
2022/01/04 06:20:22;;;;;;;6.90;6.00;;;;;;;9.27;77.00;98441.13;5051088;28;20037;-59
2022/01/04 06:22:50;;;;;;;7.50;6.53;;;;;;;9.29;76.76;98441.59;5052232;28;20064;-61
2022/01/04 06:25:19;;;;;;;6.82;6.07;;;;;;;9.33;76.95;98445.28;5052198;28;20053;-61
2022/01/04 06:27:49;;;;;;;6.72;5.45;;;;;;;9.34;76.78;98440.50;5052291;28;20401;-61
2022/01/04 06:30:20;;;;;;;8.65;6.03;;;;;;;9.32;76.62;98440.91;5051845;28;20485;-61
2022/01/04 06:32:49;;;;;;;8.48;6.57;;;;;;;9.39;76.13;98445.03;5050900;28;20048;-61
2022/01/04 06:35:16;;;;;;;7.27;6.03;;;;;;;9.42;76.33;98450.66;5051240;28;20053;-61
2022/01/04 06:37:44;;;;;;;7.18;6.43;;;;;;;9.23;76.47;98437.44;5051477;28;20053;-60
2022/01/04 06:40:13;;;;;;;6.32;5.72;;;;;;;9.36;76.46;98435.41;5051008;28;20049;-61
2022/01/04 06:42:44;;;;;;;8.00;6.30;;;;;;;9.42;76.07;98433.97;5043176;28;20382;-61
2022/01/04 06:45:13;;;;;;;6.80;6.13;;;;;;;9.42;75.70;98422.88;5043331;28;20057;-61
2022/01/04 06:47:40;;;;;;;7.27;6.40;;;;;;;9.37;76.09;98425.94;5051318;28;20484;-60
2022/01/04 06:50:11;;;;;;;6.88;5.80;;;;;;;9.33;75.62;98417.50;5052246;28;20052;-62
2022/01/04 06:52:39;;;;;;;7.78;6.35;;;;;;;9.24;75.63;98411.31;5051265;28;20060;-61
2022/01/04 06:55:06;;;;;;;7.43;6.50;;;;;;;9.18;75.67;98406.38;5051206;28;20057;-61
2022/01/04 06:57:34;;;;;;;7.88;6.82;;;;;;;9.08;75.85;98402.13;5049885;28;20068;-61
2022/01/04 07:00:01;;;;;;;8.65;6.70;;;;;;;9.10;76.25;98411.72;5051155;28;20052;-61
2022/01/04 07:02:28;;;;;;;8.27;7.38;;;;;;;9.08;76.29;98402.13;5051568;28;20489;-61
2022/01/04 07:04:56;;;;;;;8.75;7.47;;;;;;;9.11;76.15;98396.69;5051646;28;20049;-61
2022/01/04 07:07:24;;;;;;;8.48;7.60;;;;;;;9.13;76.49;98391.59;5050395;28;20049;-61
2022/01/04 07:09:52;;;;;;;7.97;7.17;;;;;;;9.19;76.33;98385.75;5052234;28;20056;-61
2022/01/04 07:12:19;;;;;;;8.93;7.55;;;;;;;9.21;76.39;98389.78;5055695;28;20405;-61
2022/01/04 07:14:47;;;;;;;8.18;6.55;;;;;;;9.23;76.11;98386.66;5055507;28;20497;-61
2022/01/04 07:17:14;;;;;;;10.15;7.00;;;;;;;9.24;76.00;98389.09;5055325;28;20061;-62
2022/01/04 07:19:41;;;;;;;10.50;6.63;;;;;;;9.00;75.75;98383.66;5054522;28;20048;-62
2022/01/04 07:22:11;;;;;;;8.77;6.85;;;;;;;9.05;76.16;98384.22;5056261;28;20053;-61
2022/01/04 07:24:39;;;;;;;9.70;7.93;;;;;;;9.09;75.98;98375.97;5054813;28;20067;-61
2022/01/04 07:27:07;;;;;;;8.50;7.18;;;;;;;9.01;76.14;98385.25;5052425;28;20056;-61
2022/01/04 07:29:34;;;;;;;8.95;7.60;;;;;;;9.05;75.96;98386.16;5055686;28;20048;-62
2022/01/04 07:32:02;;;;;;;9.57;7.65;;;;;;;9.07;76.26;98381.91;5055518;28;20056;-61
2022/01/04 07:34:29;;;;;;;10.05;7.75;;;;;;;9.10;76.08;98372.03;5054500;28;20049;-61
2022/01/04 07:36:56;;;;;;;9.93;7.88;;;;;;;9.13;76.30;98385.19;5054954;28;20057;-61
2022/01/04 07:39:23;;;;;;;11.20;9.00;;;;;;;9.16;76.44;98376.16;5054507;28;20486;-38
2022/01/04 07:41:52;;;;;;;10.30;8.27;;;;;;;9.05;76.43;98377.84;5055030;28;20053;-39
2022/01/04 07:44:19;;;;;;;9.43;7.30;;;;;;;8.84;76.99;98373.34;5036442;28;20052;-38
2022/01/04 07:46:47;;;;;;;12.20;8.38;;;;;;;8.52;78.19;98370.47;5049842;28;20064;-37
2022/01/04 07:49:15;;;;;;;12.60;8.75;;;;;;;8.93;77.34;98382.31;5055520;28;20060;-63
2022/01/04 07:51:43;;;;;;;11.45;8.63;;;;;;;9.10;76.66;98381.16;5054311;28;20053;-62
2022/01/04 07:54:10;;;;;;;9.55;7.45;;;;;;;9.26;76.51;98372.03;5045851;28;20087;-63
2022/01/04 07:56:40;;;;;;;10.52;8.00;;;;;;;9.35;75.91;98379.03;5040675;28;20053;-63
2022/01/04 07:59:08;;;;;;;;;;;;;;;9.41;75.54;98381.53;5042754;28;20054;-63
2022/01/04 08:01:36;;;;;;;10.82;9.52;;;;;;;9.47;75.69;98375.38;5051521;28;19932;-63
2022/01/04 08:04:04;;;;;;;10.18;8.68;;;;;;;9.55;74.99;98373.56;5051993;28;20057;-63
2022/01/04 08:06:32;;;;;;;13.10;9.45;;;;;;;9.48;74.76;98371.41;5052001;28;20065;-63
2022/01/04 08:08:59;;;;;;;11.95;9.32;;;;;;;9.54;74.72;98371.97;5050984;28;20053;-63
2022/01/04 08:11:27;;;;;;;13.85;10.63;;;;;;;9.57;74.94;98371.25;5052295;28;20055;-63
2022/01/04 08:13:55;;;;;;;12.32;9.00;;;;;;;9.51;75.06;98375.44;5046350;28;20049;-63
2022/01/04 08:16:23;;;;;;;15.43;10.50;;;;;;;9.33;75.40;98363.91;5052352;28;20056;-63
2022/01/04 08:18:51;;;;;;;13.02;10.27;;;;;;;9.46;74.72;98364.63;5051166;28;20049;-63
2022/01/04 08:21:18;;;;;;;13.05;9.82;;;;;;;9.45;74.73;98361.03;5047408;28;20061;-62
2022/01/04 08:23:45;;;;;;;13.65;10.20;;;;;;;9.45;74.51;98366.59;5045900;28;20049;-62
2022/01/04 08:26:13;;;;;;;14.70;9.90;;;;;;;9.44;74.52;98353.84;5041119;28;20053;-62
2022/01/04 08:28:40;;;;;;;16.95;10.90;;;;;;;9.42;73.59;98363.72;5039858;28;20525;-62
2022/01/04 08:31:08;;;;;;;12.27;9.82;;;;;;;9.37;74.35;98364.81;5040668;28;20064;-62
2022/01/04 08:33:36;;;;;;;11.90;9.68;;;;;;;9.39;74.65;98356.13;5051488;28;20052;-62
2022/01/04 08:36:04;;;;;;;14.27;10.57;;;;;;;9.35;74.38;98356.81;5051064;28;20067;-62
2022/01/04 08:38:31;;;;;;;13.13;10.55;;;;;;;9.33;74.87;98361.13;5050616;28;20052;-62
2022/01/04 08:40:59;;;;;;;14.27;11.23;;;;;;;9.32;74.93;98367.84;5051685;28;20061;-62
2022/01/04 08:43:26;;;;;;;14.73;10.73;;;;;;;9.29;74.87;98369.34;5048502;28;20049;-62
2022/01/04 08:45:54;;;;;;;14.18;11.35;;;;;;;9.32;75.08;98370.59;5047599;28;20057;-62
2022/01/04 08:48:21;;;;;;;15.23;9.90;;;;;;;9.35;74.94;98367.94;5050343;28;20418;-62
2022/01/04 08:50:50;;;;;;;13.13;10.65;;;;;;;9.23;74.79;98367.22;5039935;28;20064;-61
2022/01/04 08:53:17;;;;;;;13.20;9.77;;;;;;;9.38;74.71;98365.59;5045355;28;20480;-62
2022/01/04 08:55:45;;;;;;;12.30;9.60;;;;;;;9.38;73.96;98360.03;5051573;28;20048;-61
2022/01/04 08:58:12;;;;;;;12.60;9.75;;;;;;;9.18;74.35;98343.28;5050299;28;20052;-62
2022/01/04 09:00:40;;;;;;;12.02;9.27;;;;;;;9.26;74.48;98331.19;5049063;28;20071;-62
2022/01/04 09:03:07;;;;;;;12.85;9.77;;;;;;;9.31;74.03;98328.13;5050992;28;20063;-61
2022/01/04 09:05:35;;;;;;;13.68;10.35;;;;;;;9.34;73.83;98327.44;5050644;28;20063;-61
2022/01/04 09:08:03;;;;;;;11.60;8.77;;;;;;;9.18;74.33;98321.06;5051474;28;20421;-61
2022/01/04 09:10:32;;;;;;;10.83;8.57;;;;;;;9.10;74.63;98324.81;5049775;28;20532;-61
2022/01/04 09:13:05;;;;;;;9.45;7.53;;;;;;;9.26;73.43;98308.97;5050892;28;20397;-61
2022/01/04 09:15:47;;;;;;;9.93;7.05;;;;;;;9.27;73.62;98313.34;5050451;28;20497;-61
2022/01/04 09:21:00;;;;;;;8.90;6.50;;;;;;;9.08;73.83;98325.16;5052359;28;20063;-61
2022/01/04 09:23:29;;;;;;;9.07;6.50;;;;;;;9.11;73.79;98338.34;5034543;28;20397;-61
2022/01/04 09:25:58;;;;;;;8.10;6.03;;;;;;;9.18;73.72;98336.94;5050311;28;20056;-61
2022/01/04 09:28:27;;;;;;;9.52;6.75;;;;;;;9.14;74.36;98347.94;5049455;28;20401;-61
2022/01/04 09:30:55;;;;;;;9.77;7.07;;;;;;;9.10;74.49;98355.38;5050136;28;20053;-61
2022/01/04 09:33:22;;;;;;;9.43;7.78;;;;;;;9.29;74.31;98363.81;5049350;28;20052;-61
2022/01/04 09:35:50;;;;;;;9.25;7.22;;;;;;;9.37;74.11;98369.56;5050065;28;20056;-61
2022/01/04 09:38:18;;;;;;;10.52;8.13;;;;;;;9.50;74.00;98382.19;5049049;28;20052;-62
2022/01/04 09:40:49;;;;;;;9.15;6.68;;;;;;;9.57;73.40;98387.91;5049737;28;20048;-62
2022/01/04 09:43:19;;;;;;;8.75;6.13;;;;;;;9.61;73.38;98383.25;5046841;28;20056;-61
2022/01/04 09:45:46;;;;;;;7.30;5.70;;;;;;;9.64;72.87;98360.31;5050077;28;20045;-60
2022/01/04 09:48:14;;;;;;;12.73;7.35;;;;;;;9.51;73.44;98345.72;5049324;28;20053;-62
2022/01/04 09:50:43;;;;;;;10.45;6.55;;;;;;;9.62;73.01;98343.19;5042349;28;20049;-62
2022/01/04 09:53:12;;;;;;;7.85;5.50;;;;;;;9.49;73.43;98347.22;5049626;28;20061;-62
2022/01/04 09:55:42;;;;;;;6.75;5.47;;;;;;;9.39;73.61;98340.25;5049857;28;20057;-62
2022/01/04 09:58:11;;;;;;;10.50;5.80;;;;;;;9.49;73.87;98338.88;5049918;28;20049;-62
2022/01/04 10:00:38;;;;;;;7.80;5.25;;;;;;;9.54;72.46;98330.28;5049010;28;20071;-62
2022/01/04 10:03:12;;;;;;;6.47;5.15;;;;;;;9.51;72.79;98342.09;5050529;28;20053;-62
2022/01/04 10:05:40;;;;;;;8.55;6.00;;;;;;;9.64;73.23;98353.91;5049920;28;20060;-62
2022/01/04 10:08:09;;;;;;;6.75;5.38;;;;;;;9.68;72.24;98358.44;5042288;28;20418;-62
2022/01/04 10:10:37;;;;;;;6.55;4.75;;;;;;;9.52;72.70;98360.41;5042128;28;20059;-62
2022/01/04 10:13:06;;;;;;;8.25;6.22;;;;;;;9.22;73.92;98341.41;5049500;28;20053;-62
2022/01/04 10:15:38;;;;;;;10.30;7.45;;;;;;;9.45;73.60;98326.88;5046031;28;20517;-61
2022/01/04 10:18:21;;;;;;;9.68;7.65;;;;;;;9.49;73.44;98330.53;5042672;28;20049;-63
2022/01/04 10:20:52;;;;;;;9.73;6.95;;;;;;;9.47;73.27;98330.91;5043582;28;20061;-62
2022/01/04 10:23:22;;;;;;;9.57;5.47;;;;;;;9.64;72.70;98323.34;5048374;28;20053;-62
2022/01/04 10:25:50;;;;;;;;;;;;;;;9.12;74.04;98311.38;5043740;28;20484;-62
2022/01/04 10:28:31;;;;;;;7.05;5.32;;;;;;;9.25;74.02;98326.78;5049459;28;20305;-62
2022/01/04 10:31:07;;;;;;;8.00;5.32;;;;;;;9.21;74.35;98328.66;5049772;28;20056;-62
2022/01/04 10:33:35;;;;;;;6.85;4.47;;;;;;;8.99;74.81;98323.72;5049528;28;20056;-62
2022/01/04 10:36:11;;;;;;;7.50;5.53;;;;;;;8.87;75.92;98324.63;5049378;28;20056;-62
2022/01/04 10:38:40;;;;;;;6.25;4.60;;;;;;;8.93;75.29;98317.66;5044786;28;20514;-62
2022/01/04 10:41:10;;;;;;;9.47;5.27;;;;;;;8.91;75.90;98331.88;5049546;28;20052;-62
2022/01/04 10:43:43;;;;;;;7.57;5.13;;;;;;;9.02;75.48;98331.34;5045543;28;20075;-62
2022/01/04 10:46:13;;;;;;;6.03;5.32;;;;;;;9.02;76.35;98342.47;5048323;28;20060;-63
2022/01/04 10:48:43;;;;;;;7.95;5.90;;;;;;;8.94;76.49;98347.84;5048440;28;20057;-63
2022/01/04 10:51:13;;;;;;;8.43;5.70;;;;;;;9.16;75.52;98345.63;5048503;28;20124;-62
2022/01/04 10:53:43;;;;;;;7.10;5.50;;;;;;;9.38;75.07;98343.38;5048869;28;20057;-63
2022/01/04 10:56:14;;;;;;;7.60;5.53;;;;;;;9.47;74.43;98339.25;5048998;28;20052;-62
2022/01/04 10:58:42;;;;;;;;;;;;;;;9.48;74.08;98337.28;5049310;28;20061;-62
2022/01/04 11:01:12;;;;;;;8.73;6.13;;;;;;;9.53;73.45;98346.16;5049609;28;20309;-62
2022/01/04 11:03:43;;;;;;;9.07;6.22;;;;;;;9.44;74.70;98334.41;5049644;28;20414;-62
2022/01/04 11:06:13;;;;;;;8.35;6.45;;;;;;;9.64;74.39;98335.28;5049835;28;20374;-62
2022/01/04 11:08:44;;;;;;;9.40;6.25;;;;;;;9.59;73.75;98327.22;5048940;28;20060;-62
2022/01/04 11:11:12;;;;;;;9.32;6.47;;;;;;;9.60;73.75;98320.50;5048839;28;20061;-62
2022/01/04 11:13:40;;;;;;;6.43;5.40;;;;;;;9.66;73.33;98321.00;5048556;28;20486;-62
2022/01/04 11:16:07;;;;;;;7.50;6.22;;;;;;;9.25;75.14;98304.56;5049536;28;20056;-62
2022/01/04 11:18:40;;;;;;;5.82;4.60;;;;;;;9.57;73.97;98317.63;5042394;28;20045;-62
2022/01/04 11:21:12;;;;;;;6.90;4.65;;;;;;;9.59;73.06;98321.66;5040177;28;20498;-62
2022/01/04 11:23:41;;;;;;;4.97;4.10;;;;;;;9.46;73.97;98323.72;5046653;28;20053;-62
2022/01/04 11:26:11;;;;;;;5.80;5.00;;;;;;;9.48;74.50;98323.38;5033258;28;20053;-62
2022/01/04 11:28:42;;;;;;;6.38;4.50;;;;;;;9.54;73.94;98305.28;5047037;28;20057;-62
2022/01/04 11:31:24;;;;;;;4.93;3.63;;;;;;;9.67;73.31;98298.41;5049620;28;20053;-62
2022/01/04 11:34:00;;;;;;;5.88;4.18;;;;;;;9.75;72.55;98313.31;5048558;28;20052;-62
2022/01/04 11:36:29;;;;;;;6.93;4.68;;;;;;;9.42;73.97;98319.25;5042923;28;20061;-62
2022/01/04 11:38:57;;;;;;;6.72;4.00;;;;;;;9.39;74.51;98331.09;5044864;28;20433;-62
2022/01/04 11:41:40;;;;;;;5.95;4.53;;;;;;;9.34;74.71;98338.56;5047869;28;20057;-62
2022/01/04 11:44:18;;;;;;;8.15;4.65;;;;;;;9.27;74.89;98338.34;5035599;28;20045;-63
2022/01/04 11:46:58;;;;;;;6.05;5.03;;;;;;;9.39;74.25;98331.09;5046484;28;20037;-62
2022/01/04 11:49:27;;;;;;;7.18;5.07;;;;;;;9.45;74.29;98332.41;5048239;28;20041;-62
2022/01/04 11:51:54;;;;;;;7.40;5.22;;;;;;;9.09;75.62;98335.13;5047719;28;20056;-64
2022/01/04 11:54:24;;;;;;;6.82;5.38;;;;;;;9.28;74.79;98328.88;5045878;28;20544;-63
2022/01/04 11:56:53;;;;;;;;;;;;;;;9.39;73.61;98325.56;5046411;28;20060;-63